Time;durP1;ratioP1;P1;durP2;ratioP2;P2;SDS_P1;SDS_P2;PMS_P1;PMS_P2;Temp;Humidity;BMP_temperature;BMP_pressure;BME280_temperature;BME280_humidity;BME280_pressure;Samples;Min_cycle;Max_cycle;Signal;HPM_P1;HPM_P2
2023/02/13 00:00:53;;;;;;;;;;;;;;;;;;5071395;28;19920;-47
2023/02/13 00:03:19;;;;;;;;;;;;;;;;;;5072022;28;19924;-47
2023/02/13 00:05:45;;;;;;;;;;;;;;;;;;5071730;28;20285;-48
2023/02/13 00:08:10;;;;;;;;;;;;;;;;;;5071835;28;20360;-50
2023/02/13 00:10:36;;;;;;;;;;;;;;;;;;5071930;28;19909;-50
2023/02/13 00:13:02;;;;;;;;;;;;;;;;;;5071764;28;20430;-49
2023/02/13 00:15:28;;;;;;;;;;;;;;;;;;5071588;28;19920;-50
2023/02/13 00:17:54;;;;;;;;;;;;;;;;;;5071795;28;19904;-48
2023/02/13 00:20:20;;;;;;;;;;;;;;;;;;5071898;28;19909;-47
2023/02/13 00:22:46;;;;;;;;;;;;;;;;;;5072938;28;20297;-51
2023/02/13 00:25:12;;;;;;;;;;;;;;;;;;5072067;28;20614;-49
2023/02/13 00:27:38;;;;;;;;;;;;;;;;;;5075461;28;19908;-49
2023/02/13 00:30:04;;;;;;;;;;;;;;;;;;5075464;28;19959;-49
2023/02/13 00:32:30;;;;;;;;;;;;;;;;;;5094860;28;19997;-48
2023/02/13 00:34:57;;;;;;;;;;;;;;;;;;5095117;28;20181;-47
2023/02/13 00:37:22;;;;;;;;;;;;;;;;;;5095867;28;19915;-48
2023/02/13 00:39:48;;;;;;;;;;;;;;;;;;5092223;28;19920;-47
2023/02/13 00:42:14;;;;;;;;;;;;;;;;;;5093573;28;20003;-47
2023/02/13 00:44:40;;;;;;;;;;;;;;;;;;5076404;28;20359;-50
2023/02/13 00:47:06;;;;;;;;;;;;;;;;;;5078501;28;19991;-50
2023/02/13 00:49:32;;;;;;;;;;;;;;;;;;5078852;28;19948;-48
2023/02/13 00:51:58;;;;;;;;;;;;;;;;;;5056889;28;20141;-50
2023/02/13 00:54:24;;;;;;;;;;;;;;;;;;5076148;28;19950;-50
2023/02/13 00:56:50;;;;;;;;;;;;;;;;;;5056735;28;19948;-48
2023/02/13 00:59:16;;;;;;;;;;;;;;;;;;5074879;28;19955;-49
2023/02/13 01:01:42;;;;;;;;;;;;;;;;;;5080890;28;19938;-50
2023/02/13 01:04:08;;;;;;;;;;;;;;;;;;5074690;28;19970;-47
2023/02/13 01:06:34;;;;;;;;;;;;;;;;;;5082617;28;19912;-50
2023/02/13 01:09:00;;;;;;;;;;;;;;;;;;5061499;28;19912;-49
2023/02/13 01:11:26;;;;;;;;;;;;;;;;;;5074664;28;19908;-48
2023/02/13 01:13:51;;;;;;;;;;;;;;;;;;5075144;28;20318;-47
2023/02/13 01:16:17;;;;;;;;;;;;;;;;;;5074801;28;19908;-51
2023/02/13 01:18:43;;;;;;;;;;;;;;;;;;5079980;28;19935;-49
2023/02/13 01:21:09;;;;;;;;;;;;;;;;;;5094741;28;19919;-49
2023/02/13 01:23:35;;;;;;;;;;;;;;;;;;5094256;28;19923;-50
2023/02/13 01:26:01;;;;;;;;;;;;;;;;;;5092967;28;19912;-48
2023/02/13 01:28:27;;;;;;;;;;;;;;;;;;5076300;28;19920;-48
2023/02/13 01:30:53;;;;;;;;;;;;;;;;;;5069887;28;19962;-48
2023/02/13 01:33:19;;;;;;;;;;;;;;;;;;5083341;28;19916;-48
2023/02/13 01:35:45;;;;;;;;;;;;;;;;;;5094285;28;19912;-49
2023/02/13 01:38:11;;;;;;;;;;;;;;;;;;5091874;28;20332;-48
2023/02/13 01:40:37;;;;;;;;;;;;;;;;;;5092179;28;20381;-47
2023/02/13 01:43:03;;;;;;;;;;;;;;;;;;5094090;28;19912;-48
2023/02/13 01:45:29;;;;;;;;;;;;;;;;;;5090595;28;19962;-47
2023/02/13 01:47:54;;;;;;;;;;;;;;;;;;5074034;28;20007;-47
2023/02/13 01:50:20;;;;;;;;;;;;;;;;;;5074251;28;20325;-47
2023/02/13 01:52:46;;;;;;;;;;;;;;;;;;5073555;28;19920;-48
2023/02/13 01:55:12;;;;;;;;;;;;;;;;;;5073646;28;19916;-49
2023/02/13 01:57:38;;;;;;;;;;;;;;;;;;5073618;28;20297;-47
2023/02/13 02:00:04;;;;;;;;;;;;;;;;;;5055978;28;19912;-47
2023/02/13 02:02:30;;;;;;;;;;;;;;;;;;5077517;28;19912;-48
2023/02/13 02:04:56;;;;;;;;;;;;;;;;;;5073640;28;19923;-51
2023/02/13 02:07:22;;;;;;;;;;;;;;;;;;5073884;28;19912;-48
2023/02/13 02:09:48;;;;;;;;;;;;;;;;;;5075263;28;19916;-50
2023/02/13 02:12:14;;;;;;;;;;;;;;;;;;5073308;28;19919;-47
2023/02/13 02:14:40;;;;;;;;;;;;;;;;;;5073386;28;19912;-47
2023/02/13 02:17:06;;;;;;;;;;;;;;;;;;5073319;28;20421;-47
2023/02/13 02:19:32;;;;;;;;;;;;;;;;;;5073400;28;19958;-49
2023/02/13 02:21:58;;;;;;;;;;;;;;;;;;5073112;28;19912;-50
2023/02/13 02:24:24;;;;;;;;;;;;;;;;;;5073200;28;20234;-49
2023/02/13 02:26:50;;;;;;;;;;;;;;;;;;5075603;28;20014;-48
2023/02/13 02:29:16;;;;;;;;;;;;;;;;;;5055506;28;19912;-47
2023/02/13 02:31:42;;;;;;;;;;;;;;;;;;5068064;28;19957;-48
2023/02/13 02:34:08;;;;;;;;;;;;;;;;;;5093263;28;19912;-47
2023/02/13 02:36:34;;;;;;;;;;;;;;;;;;5093093;28;19916;-48
2023/02/13 02:38:59;;;;;;;;;;;;;;;;;;5132211;22;20061;-51
2023/02/13 02:41:41;;;;;;;;;;;;;;;;;;5073329;28;20057;-51
2023/02/13 02:44:07;;;;;;;;;;;;;;;;;;5073105;28;19916;-50
2023/02/13 02:46:32;;;;;;;;;;;;;;;;;;5072875;28;19961;-50
2023/02/13 02:51:43;;;;;;;;;;;;;;;;;;5072971;28;19915;-51
2023/02/13 02:56:53;;;;;;;;;;;;;;;;;;5072855;28;20033;-52
2023/02/13 03:07:33;;;;;;;;;;;;;;;;;;5072731;28;19916;-50
2023/02/13 03:15:28;;;;;;;;;;;;;;;;;;5076444;28;19958;-50
2023/02/13 03:23:23;;;;;;;;;;;;;;;;;;5092280;28;19919;-50
2023/02/13 03:25:49;;;;;;;;;;;;;;;;;;5089140;28;19913;-50
2023/02/13 03:30:59;;;;;;;;;;;;;;;;;;5083231;28;19923;-50
2023/02/13 03:33:25;;;;;;;;;;;;;;;;;;5072209;28;19916;-51
2023/02/13 03:38:36;;;;;;;;;;;;;;;;;;5072116;28;20296;-50
2023/02/13 03:41:17;;;;;;;;;;;;;;;;;;5071172;28;19917;-49
2023/02/13 03:43:43;;;;;;;;;;;;;;;;;;5089937;28;19958;-51
2023/02/13 03:46:09;;;;;;;;;;;;;;;;;;5081446;28;20296;-51
2023/02/13 03:51:19;;;;;;;;;;;;;;;;;;5078776;28;19919;-52
2023/02/13 03:53:45;;;;;;;;;;;;;;;;;;5079150;28;19913;-51
2023/02/13 03:59:17;;;;;;;;;;;;;;;;;;5072005;28;19965;-51
2023/02/13 04:01:43;;;;;;;;;;;;;;;;;;5079143;28;19912;-53
2023/02/13 04:04:09;;;;;;;;;;;;;;;;;;5061579;28;19924;-51
2023/02/13 04:06:35;;;;;;;;;;;;;;;;;;5078298;28;19917;-54
2023/02/13 04:09:01;;;;;;;;;;;;;;;;;;5079473;28;19918;-53
2023/02/13 04:11:27;;;;;;;;;;;;;;;;;;5078695;28;19991;-50
2023/02/13 04:13:53;;;;;;;;;;;;;;;;;;5078311;28;20357;-49
2023/02/13 04:16:19;;;;;;;;;;;;;;;;;;5080511;28;19966;-51
2023/02/13 04:18:45;;;;;;;;;;;;;;;;;;5081143;28;19908;-52
2023/02/13 04:21:10;;;;;;;;;;;;;;;;;;5078348;28;19916;-53
2023/02/13 04:23:36;;;;;;;;;;;;;;;;;;5079956;28;19916;-51
2023/02/13 04:26:02;;;;;;;;;;;;;;;;;;5078341;28;19913;-50
2023/02/13 04:28:28;;;;;;;;;;;;;;;;;;5078378;28;20292;-52
2023/02/13 04:30:54;;;;;;;;;;;;;;;;;;5088023;28;19913;-50
2023/02/13 04:33:20;;;;;;;;;;;;;;;;;;5078447;28;19913;-51
2023/02/13 04:35:46;;;;;;;;;;;;;;;;;;5084515;28;19916;-51
2023/02/13 04:38:12;;;;;;;;;;;;;;;;;;5098633;28;19959;-51
2023/02/13 04:40:38;;;;;;;;;;;;;;;;;;5095457;28;19978;-51
2023/02/13 04:43:04;;;;;;;;;;;;;;;;;;5085542;28;19912;-51
2023/02/13 04:45:30;;;;;;;;;;;;;;;;;;5081056;28;19918;-51
2023/02/13 04:47:56;;;;;;;;;;;;;;;;;;5078294;28;19908;-52
2023/02/13 04:50:21;;;;;;;;;;;;;;;;;;5082377;28;19970;-50
2023/02/13 04:52:47;;;;;;;;;;;;;;;;;;5084645;28;19915;-50
2023/02/13 04:55:13;;;;;;;;;;;;;;;;;;5093442;28;19912;-51
2023/02/13 04:57:39;;;;;;;;;;;;;;;;;;5089279;28;19914;-52
2023/02/13 05:00:05;;;;;;;;;;;;;;;;;;5078152;28;20344;-50
2023/02/13 05:02:31;;;;;;;;;;;;;;;;;;5059777;28;19913;-53
2023/02/13 05:04:57;;;;;;;;;;;;;;;;;;5063534;28;20354;-52
2023/02/13 05:07:23;;;;;;;;;;;;;;;;;;5078038;28;19908;-51
2023/02/13 05:09:49;;;;;;;;;;;;;;;;;;5069971;28;19920;-51
2023/02/13 05:12:15;;;;;;;;;;;;;;;;;;5068243;28;19912;-50
2023/02/13 05:14:41;;;;;;;;;;;;;;;;;;5064646;28;19913;-50
2023/02/13 05:17:07;;;;;;;;;;;;;;;;;;5073891;28;19999;-50
2023/02/13 05:19:33;;;;;;;;;;;;;;;;;;5075326;28;20388;-52
2023/02/13 05:24:43;;;;;;;;;;;;;;;;;;5087620;28;19923;-51
2023/02/13 05:27:09;;;;;;;;;;;;;;;;;;5094819;28;19912;-51
2023/02/13 05:29:35;;;;;;;;;;;;;;;;;;5094726;28;20375;-51
2023/02/13 05:32:01;;;;;;;;;;;;;;;;;;5094728;28;20007;-49
2023/02/13 05:34:27;;;;;;;;;;;;;;;;;;5094550;28;20439;-51
2023/02/13 05:36:53;;;;;;;;;;;;;;;;;;5094760;28;20276;-51
2023/02/13 05:39:19;;;;;;;;;;;;;;;;;;5094511;28;19916;-53
2023/02/13 05:41:45;;;;;;;;;;;;;;;;;;5094672;28;19915;-50
2023/02/13 05:44:11;;;;;;;;;;;;;;;;;;5094500;28;19916;-53
2023/02/13 05:46:37;;;;;;;;;;;;;;;;;;5076105;28;19908;-49
2023/02/13 05:49:03;;;;;;;;;;;;;;;;;;5094413;28;19908;-51
2023/02/13 05:51:29;;;;;;;;;;;;;;;;;;5094382;28;19908;-51
2023/02/13 05:53:55;;;;;;;;;;;;;;;;;;5094413;28;19911;-51
2023/02/13 05:56:21;;;;;;;;;;;;;;;;;;5094232;28;19912;-51
2023/02/13 05:58:46;;;;;;;;;;;;;;;;;;5094142;28;19911;-50
2023/02/13 06:01:12;;;;;;;;;;;;;;;;;;5094199;28;19908;-50
2023/02/13 06:03:39;;;;;;;;;;;;;;;;;;5094078;28;19916;-52
2023/02/13 06:06:05;;;;;;;;;;;;;;;;;;5093956;28;19908;-52
2023/02/13 06:08:31;;;;;;;;;;;;;;;;;;5093898;28;20275;-50
2023/02/13 06:10:57;;;;;;;;;;;;;;;;;;5094043;28;19909;-50
2023/02/13 06:13:23;;;;;;;;;;;;;;;;;;5070217;28;20361;-52
2023/02/13 06:15:49;;;;;;;;;;;;;;;;;;5081186;28;19966;-51
2023/02/13 06:18:15;;;;;;;;;;;;;;;;;;5073374;28;19913;-50
2023/02/13 06:20:41;;;;;;;;;;;;;;;;;;5073442;28;20018;-46
2023/02/13 06:23:07;;;;;;;;;;;;;;;;;;5073235;28;19999;-43
2023/02/13 06:25:33;;;;;;;;;;;;;;;;;;5076462;28;20007;-43
2023/02/13 06:27:59;;;;;;;;;;;;;;;;;;5073296;28;19909;-43
2023/02/13 06:30:25;;;;;;;;;;;;;;;;;;5071151;28;19916;-42
2023/02/13 06:32:51;;;;;;;;;;;;;;;;;;5090836;28;20007;-48
2023/02/13 06:35:17;;;;;;;;;;;;;;;;;;5090253;28;19977;-45
2023/02/13 06:37:43;;;;;;;;;;;;;;;;;;5069274;28;19938;-49
2023/02/13 06:40:09;;;;;;;;;;;;;;;;;;5090364;28;19959;-47
2023/02/13 06:42:35;;;;;;;;;;;;;;;;;;5075026;28;20009;-48
2023/02/13 06:45:00;;;;;;;;;;;;;;;;;;5064801;28;19967;-51
2023/02/13 06:47:26;;;;;;;;;;;;;;;;;;5073133;28;19916;-51
2023/02/13 06:49:52;;;;;;;;;;;;;;;;;;5073093;28;19916;-54
2023/02/13 06:52:18;;;;;;;;;;;;;;;;;;5057268;28;19999;-52
2023/02/13 06:54:44;;;;;;;;;;;;;;;;;;5087532;28;20019;-51
2023/02/13 06:57:10;;;;;;;;;;;;;;;;;;5075690;28;20347;-52
2023/02/13 06:59:36;;;;;;;;;;;;;;;;;;5072705;28;20399;-51
2023/02/13 07:02:02;;;;;;;;;;;;;;;;;;5073356;28;19939;-51
2023/02/13 07:04:28;;;;;;;;;;;;;;;;;;5054526;28;20323;-50
2023/02/13 07:06:54;;;;;;;;;;;;;;;;;;5088940;28;19919;-50
2023/02/13 07:09:20;;;;;;;;;;;;;;;;;;5092941;28;20357;-50
2023/02/13 07:11:46;;;;;;;;;;;;;;;;;;5092933;28;19944;-51
2023/02/13 07:14:12;;;;;;;;;;;;;;;;;;5092843;28;20174;-51
2023/02/13 07:16:38;;;;;;;;;;;;;;;;;;5092996;28;19912;-52
2023/02/13 07:19:04;;;;;;;;;;;;;;;;;;5092757;28;19908;-49
2023/02/13 07:21:29;;;;;;;;;;;;;;;;;;5093009;28;19963;-49
2023/02/13 07:23:55;;;;;;;;;;;;;;;;;;5092793;28;20308;-50
2023/02/13 07:26:22;;;;;;;;;;;;;;;;;;5092614;28;19908;-49
2023/02/13 07:28:48;;;;;;;;;;;;;;;;;;5092102;28;20447;-52
2023/02/13 07:31:14;;;;;;;;;;;;;;;;;;5092811;28;19958;-50
2023/02/13 07:33:40;;;;;;;;;;;;;;;;;;5074510;28;19955;-50
2023/02/13 07:36:06;;;;;;;;;;;;;;;;;;5074996;28;19912;-50
2023/02/13 07:38:32;;;;;;;;;;;;;;;;;;5072231;28;19915;-51
2023/02/13 07:40:57;;;;;;;;;;;;;;;;;;5072372;28;19917;-50
2023/02/13 07:43:24;;;;;;;;;;;;;;;;;;5072275;28;19909;-49
2023/02/13 07:45:54;;;;;;;;;;;;;;;;;;5072058;28;19915;-51
2023/02/13 07:48:20;;;;;;;;;;;;;;;;;;5072172;28;19944;-50
2023/02/13 07:50:45;;;;;;;;;;;;;;;;;;5078096;28;20268;-53
2023/02/13 07:53:12;;;;;;;;;;;;;;;;;;5092448;28;19908;-50
2023/02/13 07:55:38;;;;;;;;;;;;;;;;;;5092197;28;19912;-50
2023/02/13 07:58:04;;;;;;;;;;;;;;;;;;5088935;28;19919;-50
2023/02/13 08:00:30;;;;;;;;;;;;;;;;;;5073830;28;19909;-50
2023/02/13 08:02:56;;;;;;;;;;;;;;;;;;5076146;28;19923;-50
2023/02/13 08:05:21;;;;;;;;;;;;;;;;;;5092094;28;20002;-49
2023/02/13 08:07:47;;;;;;;;;;;;;;;;;;5092232;28;19908;-51
2023/02/13 08:12:58;;;;;;;;;;;;;;;;;;5092381;28;19954;-51
2023/02/13 08:15:24;;;;;;;;;;;;;;;;;;5092112;28;19908;-51
2023/02/13 08:17:50;;;;;;;;;;;;;;;;;;5092024;28;19908;-53
2023/02/13 08:20:16;;;;;;;;;;;;;;;;;;5076348;28;19917;-51
2023/02/13 08:22:42;;;;;;;;;;;;;;;;;;5059000;28;19920;-53
2023/02/13 08:25:08;;;;;;;;;;;;;;;;;;5082315;28;20383;-57
2023/02/13 08:27:34;;;;;;;;;;;;;;;;;;5080288;28;19912;-51
2023/02/13 08:30:02;;;;;;;;;;;;;;;;;;5091908;28;19938;-52
2023/02/13 08:32:27;;;;;;;;;;;;;;;;;;5092066;28;19915;-50
2023/02/13 08:34:53;;;;;;;;;;;;;;;;;;5091856;28;19912;-53
2023/02/13 08:37:19;;;;;;;;;;;;;;;;;;5073873;28;19915;-53
2023/02/13 08:39:45;;;;;;;;;;;;;;;;;;5115470;22;19934;-60
2023/02/13 08:42:11;;;;;;;;;;;;;;;;;;5091715;28;20273;-55
2023/02/13 08:44:39;;;;;;;;;;;;;;;;;;5091827;28;20386;-58
2023/02/13 08:47:05;;;;;;;;;;;;;;;;;;5094177;28;19965;-58
2023/02/13 08:49:31;;;;;;;;;;;;;;;;;;5088561;28;19908;-53
2023/02/13 08:51:57;;;;;;;;;;;;;;;;;;5075461;28;19909;-56
2023/02/13 08:54:23;;;;;;;;;;;;;;;;;;5074016;28;19954;-54
2023/02/13 08:56:49;;;;;;;;;;;;;;;;;;5075302;28;19999;-55
2023/02/13 08:59:15;;;;;;;;;;;;;;;;;;5074035;28;19909;-56
2023/02/13 09:01:41;;;;;;;;;;;;;;;;;;5075292;28;19908;-57
2023/02/13 09:04:07;;;;;;;;;;;;;;;;;;5075044;28;19919;-52
2023/02/13 09:06:33;;;;;;;;;;;;;;;;;;5073781;28;20407;-58
2023/02/13 09:08:59;;;;;;;;;;;;;;;;;;5074976;28;19909;-56
2023/02/13 09:11:25;;;;;;;;;;;;;;;;;;5075057;28;19916;-57
2023/02/13 09:13:51;;;;;;;;;;;;;;;;;;5074669;28;19905;-57
2023/02/13 09:16:16;;;;;;;;;;;;;;;;;;5073498;28;19961;-56
2023/02/13 09:18:42;;;;;;;;;;;;;;;;;;5074760;28;19905;-59
2023/02/13 09:21:08;;;;;;;;;;;;;;;;;;5074772;28;19915;-59
2023/02/13 09:23:34;;;;;;;;;;;;;;;;;;5073638;28;20354;-57
2023/02/13 09:26:00;;;;;;;;;;;;;;;;;;5074975;28;19962;-58
2023/02/13 09:28:26;;;;;;;;;;;;;;;;;;5074795;28;19908;-59
2023/02/13 09:30:52;;;;;;;;;;;;;;;;;;5074561;28;20373;-59
2023/02/13 09:33:18;;;;;;;;;;;;;;;;;;5074637;28;19954;-60
2023/02/13 09:35:44;;;;;;;;;;;;;;;;;;5074591;28;20406;-60
2023/02/13 09:38:10;;;;;;;;;;;;;;;;;;5074577;28;20392;-61
2023/02/13 09:40:36;;;;;;;;;;;;;;;;;;5074362;28;19916;-60
2023/02/13 09:43:02;;;;;;;;;;;;;;;;;;5074506;28;19909;-60
2023/02/13 09:45:28;;;;;;;;;;;;;;;;;;5074157;28;19912;-56
2023/02/13 09:47:54;;;;;;;;;;;;;;;;;;5074481;28;19920;-57
2023/02/13 09:50:21;;;;;;;;;;;;;;;;;;5074181;28;19908;-56
2023/02/13 09:52:47;;;;;;;;;;;;;;;;;;5074147;28;19909;-60
2023/02/13 09:55:12;;;;;;;;;;;;;;;;;;5074075;28;20426;-59
2023/02/13 09:57:38;;;;;;;;;;;;;;;;;;5073457;28;20490;-56
2023/02/13 10:00:10;;;;;;;;;;;;;;;;;;5074094;28;20019;-57
2023/02/13 10:02:36;;;;;;;;;;;;;;;;;;5074172;28;19908;-57
2023/02/13 10:05:02;;;;;;;;;;;;;;;;;;5072597;28;19977;-57
2023/02/13 10:07:28;;;;;;;;;;;;;;;;;;5073841;28;20361;-57
2023/02/13 10:09:54;;;;;;;;;;;;;;;;;;5072492;28;19913;-56
2023/02/13 10:12:20;;;;;;;;;;;;;;;;;;5074098;28;19962;-58
2023/02/13 10:14:46;;;;;;;;;;;;;;;;;;5073750;28;19908;-56
2023/02/13 10:17:12;;;;;;;;;;;;;;;;;;5073702;28;19909;-57
2023/02/13 10:19:37;;;;;;;;;;;;;;;;;;5073649;28;20003;-58
2023/02/13 10:22:03;;;;;;;;;;;;;;;;;;5073697;28;19963;-57
2023/02/13 10:24:29;;;;;;;;;;;;;;;;;;5073421;28;20369;-59
2023/02/13 10:26:55;;;;;;;;;;;;;;;;;;5073551;28;19958;-60
2023/02/13 10:32:06;;;;;;;;;;;;;;;;;;5073563;28;19915;-58
2023/02/13 10:34:32;;;;;;;;;;;;;;;;;;5073259;28;19909;-58
2023/02/13 10:36:58;;;;;;;;;;;;;;;;;;5073272;28;20012;-60
2023/02/13 10:39:24;;;;;;;;;;;;;;;;;;5073211;28;19966;-58
2023/02/13 10:41:50;;;;;;;;;;;;;;;;;;5072094;28;19916;-59
2023/02/13 10:44:15;;;;;;;;;;;;;;;;;;5073113;28;19913;-59
2023/02/13 10:46:42;;;;;;;;;;;;;;;;;;5073127;28;19913;-59
2023/02/13 10:49:08;;;;;;;;;;;;;;;;;;5072972;28;19905;-57
2023/02/13 10:51:34;;;;;;;;;;;;;;;;;;5073104;28;19913;-60
2023/02/13 10:54:00;;;;;;;;;;;;;;;;;;5073096;28;19905;-58
2023/02/13 10:56:26;;;;;;;;;;;;;;;;;;5072883;28;19908;-59
2023/02/13 10:58:52;;;;;;;;;;;;;;;;;;5072790;28;20452;-58
2023/02/13 11:01:18;;;;;;;;;;;;;;;;;;5072988;28;19955;-60
2023/02/13 11:03:46;;;;;;;;;;;;;;;;;;5071429;28;20013;-56
2023/02/13 11:06:12;;;;;;;;;;;;;;;;;;5072760;28;19909;-58
2023/02/13 11:08:38;;;;;;;;;;;;;;;;;;5072758;28;19915;-58
2023/02/13 11:11:04;;;;;;;;;;;;;;;;;;5073340;28;19912;-57
2023/02/13 11:13:30;;;;;;;;;;;;;;;;;;5083870;28;19912;-56
2023/02/13 11:15:56;;;;;;;;;;;;;;;;;;5072507;28;20002;-56
2023/02/13 11:18:22;;;;;;;;;;;;;;;;;;5071889;28;20331;-57
2023/02/13 11:20:48;;;;;;;;;;;;;;;;;;5083578;28;20283;-60
2023/02/13 11:23:14;;;;;;;;;;;;;;;;;;5092727;28;19916;-56
2023/02/13 11:25:40;;;;;;;;;;;;;;;;;;5076877;28;20007;-57
2023/02/13 11:28:06;;;;;;;;;;;;;;;;;;5072264;28;19908;-57
2023/02/13 11:30:32;;;;;;;;;;;;;;;;;;5072666;28;19908;-56
2023/02/13 11:32:59;;;;;;;;;;;;;;;;;;5072508;28;19920;-58
2023/02/13 11:35:25;;;;;;;;;;;;;;;;;;5071907;28;19965;-60
2023/02/13 11:37:50;;;;;;;;;;;;;;;;;;5075745;28;19915;-60
2023/02/13 11:40:17;;;;;;;;;;;;;;;;;;5074846;28;19922;-62
2023/02/13 11:42:42;;;;;;;;;;;;;;;;;;5090583;28;19920;-59
2023/02/13 11:45:08;;;;;;;;;;;;;;;;;;5089852;28;20027;-62
2023/02/13 11:47:34;;;;;;;;;;;;;;;;;;5071469;28;19944;-56
2023/02/13 11:50:00;;;;;;;;;;;;;;;;;;5070819;28;19913;-58
2023/02/13 11:52:26;;;;;;;;;;;;;;;;;;5071972;28;19919;-60
2023/02/13 11:54:52;;;;;;;;;;;;;;;;;;5071789;28;19952;-59
2023/02/13 11:57:18;;;;;;;;;;;;;;;;;;5076940;28;19916;-57
2023/02/13 11:59:44;;;;;;;;;;;;;;;;;;5081871;28;19912;-58
2023/02/13 12:02:10;;;;;;;;;;;;;;;;;;5072128;28;19909;-57
2023/02/13 12:04:36;;;;;;;;;;;;;;;;;;5071327;28;20399;-57
2023/02/13 12:07:02;;;;;;;;;;;;;;;;;;5075366;28;19912;-58
2023/02/13 12:09:28;;;;;;;;;;;;;;;;;;5072467;28;20365;-60
2023/02/13 12:11:54;;;;;;;;;;;;;;;;;;5072788;28;19935;-58
2023/02/13 12:14:20;;;;;;;;;;;;;;;;;;5069926;28;20296;-57
2023/02/13 12:16:49;;;;;;;;;;;;;;;;;;5075620;28;20007;-59
2023/02/13 12:19:15;;;;;;;;;;;;;;;;;;5071874;28;20483;-58
2023/02/13 12:21:41;;;;;;;;;;;;;;;;;;5089220;28;19948;-59
2023/02/13 12:24:07;;;;;;;;;;;;;;;;;;5079974;28;19926;-58
2023/02/13 12:26:35;;;;;;;;;;;;;;;;;;5089949;28;20346;-60
2023/02/13 12:29:01;;;;;;;;;;;;;;;;;;5073806;28;19951;-58
2023/02/13 12:31:26;;;;;;;;;;;;;;;;;;5075897;28;19953;-58
2023/02/13 12:33:53;;;;;;;;;;;;;;;;;;5076986;28;19913;-58
2023/02/13 12:36:19;;;;;;;;;;;;;;;;;;5075512;28;19958;-58
2023/02/13 12:38:46;;;;;;;;;;;;;;;;;;5074531;28;19921;-61
2023/02/13 12:41:11;;;;;;;;;;;;;;;;;;5074985;28;19951;-62
2023/02/13 12:43:37;;;;;;;;;;;;;;;;;;5076269;28;19913;-56
2023/02/13 12:46:03;;;;;;;;;;;;;;;;;;5079704;28;20579;-57
2023/02/13 12:48:29;;;;;;;;;;;;;;;;;;5074082;28;19920;-56
2023/02/13 12:50:55;;;;;;;;;;;;;;;;;;5074681;28;19954;-57
2023/02/13 12:53:21;;;;;;;;;;;;;;;;;;5081271;28;20003;-58
2023/02/13 12:55:47;;;;;;;;;;;;;;;;;;5080428;28;19990;-61
2023/02/13 12:58:13;;;;;;;;;;;;;;;;;;5075425;28;19951;-56
2023/02/13 13:00:39;;;;;;;;;;;;;;;;;;5075213;28;19973;-57
2023/02/13 13:03:05;;;;;;;;;;;;;;;;;;5075186;28;20376;-57
2023/02/13 13:05:33;;;;;;;;;;;;;;;;;;5073746;28;20218;-57
2023/02/13 13:07:59;;;;;;;;;;;;;;;;;;5074920;28;19912;-61
2023/02/13 13:10:25;;;;;;;;;;;;;;;;;;5077798;28;19958;-59
2023/02/13 13:12:51;;;;;;;;;;;;;;;;;;5095313;28;19912;-60
2023/02/13 13:15:17;;;;;;;;;;;;;;;;;;5092032;28;19974;-59
2023/02/13 13:17:43;;;;;;;;;;;;;;;;;;5095324;28;19908;-57
2023/02/13 13:20:08;;;;;;;;;;;;;;;;;;5094924;28;19908;-60
2023/02/13 13:22:34;;;;;;;;;;;;;;;;;;5095034;28;20565;-59
2023/02/13 13:25:00;;;;;;;;;;;;;;;;;;5093201;28;20018;-57
2023/02/13 13:27:26;;;;;;;;;;;;;;;;;;5094532;28;19950;-57
2023/02/13 13:29:52;;;;;;;;;;;;;;;;;;5092023;28;19912;-58
2023/02/13 13:32:18;;;;;;;;;;;;;;;;;;5092690;28;19912;-56
2023/02/13 13:34:44;;;;;;;;;;;;;;;;;;5093783;28;19923;-59
2023/02/13 13:37:10;;;;;;;;;;;;;;;;;;5094924;28;19908;-58
2023/02/13 13:39:36;;;;;;;;;;;;;;;;;;5092925;28;19920;-58
2023/02/13 13:42:02;;;;;;;;;;;;;;;;;;5094770;28;19961;-59
2023/02/13 13:44:28;;;;;;;;;;;;;;;;;;5087339;28;20384;-60
2023/02/13 13:46:54;;;;;;;;;;;;;;;;;;5073976;28;20008;-58
2023/02/13 13:49:20;;;;;;;;;;;;;;;;;;5073083;28;19955;-59
2023/02/13 13:51:45;;;;;;;;;;;;;;;;;;5074330;28;19909;-56
2023/02/13 13:54:11;;;;;;;;;;;;;;;;;;5076350;28;19983;-59
2023/02/13 13:56:37;;;;;;;;;;;;;;;;;;5093962;28;19957;-60
2023/02/13 13:59:03;;;;;;;;;;;;;;;;;;5092990;28;19908;-60
2023/02/13 14:01:29;;;;;;;;;;;;;;;;;;5093902;28;20411;-60
2023/02/13 14:03:55;;;;;;;;;;;;;;;;;;5080337;28;20023;-58
2023/02/13 14:06:21;;;;;;;;;;;;;;;;;;5073169;28;20345;-61
2023/02/13 14:08:48;;;;;;;;;;;;;;;;;;5073433;28;19908;-59
2023/02/13 14:11:14;;;;;;;;;;;;;;;;;;5081145;28;19912;-57
2023/02/13 14:13:39;;;;;;;;;;;;;;;;;;5094179;28;19915;-59
2023/02/13 14:16:05;;;;;;;;;;;;;;;;;;5093177;28;19912;-61
2023/02/13 14:18:31;;;;;;;;;;;;;;;;;;5094056;28;19908;-59
2023/02/13 14:20:57;;;;;;;;;;;;;;;;;;5079218;28;19913;-59
2023/02/13 14:23:23;;;;;;;;;;;;;;;;;;5074334;28;19908;-56
2023/02/13 14:25:49;;;;;;;;;;;;;;;;;;5093771;28;20513;-59
2023/02/13 14:28:15;;;;;;;;;;;;;;;;;;5093873;28;19923;-57
2023/02/13 14:30:41;;;;;;;;;;;;;;;;;;5080385;28;19973;-61
2023/02/13 14:33:07;;;;;;;;;;;;;;;;;;5073619;28;20321;-57
2023/02/13 14:35:33;;;;;;;;;;;;;;;;;;5073335;28;20376;-59
2023/02/13 14:37:59;;;;;;;;;;;;;;;;;;5086927;28;20376;-61
2023/02/13 14:40:25;;;;;;;;;;;;;;;;;;5092243;28;19927;-59
2023/02/13 14:42:51;;;;;;;;;;;;;;;;;;5090490;28;19962;-56
2023/02/13 14:45:17;;;;;;;;;;;;;;;;;;5073395;28;19916;-59
2023/02/13 14:47:43;;;;;;;;;;;;;;;;;;5073167;28;19996;-58
2023/02/13 14:50:09;;;;;;;;;;;;;;;;;;5076756;28;20011;-59
2023/02/13 14:52:35;;;;;;;;;;;;;;;;;;5076398;28;19971;-58
2023/02/13 14:55:01;;;;;;;;;;;;;;;;;;5083206;28;19955;-58
2023/02/13 14:57:26;;;;;;;;;;;;;;;;;;5073696;28;19908;-58
2023/02/13 14:59:52;;;;;;;;;;;;;;;;;;5075460;28;20377;-58
2023/02/13 15:02:18;;;;;;;;;;;;;;;;;;5073034;28;19915;-58
2023/02/13 15:04:44;;;;;;;;;;;;;;;;;;5076380;28;19927;-58
2023/02/13 15:07:10;;;;;;;;;;;;;;;;;;5080692;28;19962;-58
2023/02/13 15:09:37;;;;;;;;;;;;;;;;;;5080194;28;19912;-58
2023/02/13 15:12:03;;;;;;;;;;;;;;;;;;5080924;28;19963;-57
2023/02/13 15:14:29;;;;;;;;;;;;;;;;;;5084614;28;19912;-60
2023/02/13 15:16:55;;;;;;;;;;;;;;;;;;5082551;28;20309;-58
2023/02/13 15:19:21;;;;;;;;;;;;;;;;;;5072830;28;19912;-58
2023/02/13 15:21:47;;;;;;;;;;;;;;;;;;5073902;28;20396;-58
2023/02/13 15:24:13;;;;;;;;;;;17.60;36.20;;;;;;5072889;28;20441;-58
2023/02/13 15:26:40;;;;;;;;;;;26.90;33.60;;;;;;5080042;28;19990;-58
2023/02/13 15:29:15;;;;;;;;;;;26.10;32.80;;;;;;5077952;28;19920;-58
2023/02/13 15:31:41;;;;;;;;;;;25.80;33.20;;;;;;5076147;28;19912;-58
2023/02/13 15:34:36;;;;;;;;;;;24.80;33.60;;;;;;5074164;28;19912;-58
2023/02/13 15:37:02;;;;;;;;;;;;;;;;;;5060404;28;19919;-59
2023/02/13 15:39:28;;;;;;;;;;;;;;;;;;5092108;28;19916;-58
2023/02/13 15:41:54;;;;;;;;;;;;;;;;;;5088208;28;20006;-56
2023/02/13 15:44:20;;;;;;;;;;;;;;;;;;5078426;28;19916;-58
2023/02/13 15:46:46;;;;;;;;;;;;;;;;;;5071314;28;19912;-58
2023/02/13 15:49:12;;;;;;;;;;;;;;;;;;5071856;28;19912;-58
2023/02/13 15:51:38;;;;;;;;;;;;;;;;;;5070328;28;19912;-56
2023/02/13 15:54:04;;;;;;;;;;;;;;;;;;5072914;28;19965;-58
2023/02/13 15:56:30;;;;;;;;;;;;;;;;;;5090596;28;19912;-58
2023/02/13 15:58:56;;;;;;;;;;;;;;;;;;5091847;28;19912;-58
2023/02/13 16:01:22;;;;;;;;;;;;;;;;;;5091870;28;20365;-58
2023/02/13 16:03:48;;;;;;;;;;;;;;;;;;5078810;28;20004;-56
2023/02/13 16:06:14;;;;;;;;;;;;;;;;;;5071823;28;19960;-57
2023/02/13 16:08:42;;;;;;;;;;;;;;;;;;5070821;28;19955;-57
2023/02/13 16:11:08;;;;;;;;;;;;;;;;;;5071774;28;19908;-58
2023/02/13 16:13:34;;;;;;;;;;;;;;;;;;5072090;28;19920;-57
2023/02/13 16:16:00;;;;;;;;;;;;;;;;;;5070190;28;20403;-58
2023/02/13 16:18:26;;;;;;;;;;;;;;;;;;5071655;28;19958;-58
2023/02/13 16:20:52;;;;;;;;;;;;;;;;;;5071629;28;19959;-58
2023/02/13 16:23:18;;;;;;;;;;;;;;;;;;5071613;28;19912;-58
2023/02/13 16:25:44;;;;;;;;;;;;;;;;;;5074231;28;19931;-57
2023/02/13 16:28:10;;;;;;;;;;;;;;;;;;5081900;28;19908;-58
2023/02/13 16:30:36;;;;;;;;;;;;;;;;;;5071652;28;19912;-58
2023/02/13 16:33:02;;;;;;;;;;;;;;;;;;5071769;28;20016;-58
2023/02/13 16:35:28;;;;;;;;;;;;;;;;;;5088040;28;20324;-58
2023/02/13 16:37:55;;;;;;;;;;;;;;;;;;5078932;28;19913;-58
2023/02/13 16:40:21;;;;;;;;;;;;;;;;;;5071523;28;19923;-58
2023/02/13 16:42:46;;;;;;;;;;;;;;;;;;5071648;28;19913;-57
2023/02/13 16:45:12;;;;;;;;;;;;;;;;;;5071330;28;19912;-56
2023/02/13 16:47:38;;;;;;;;;;;;;;;;;;5079876;28;19916;-58
2023/02/13 16:50:04;;;;;;;;;;;;;;;;;;5071063;28;20339;-54
2023/02/13 16:52:30;;;;;;;;;;;;;;;;;;5071941;28;20409;-58
2023/02/13 16:54:56;;;;;;;;;;;;;;;;;;5071303;28;19913;-58
2023/02/13 16:57:22;;;;;;;;;;;;;;;;;;5070630;28;19920;-57
2023/02/13 16:59:48;;;;;;;;;;;;;;;;;;5071607;28;20047;-57
2023/02/13 17:02:14;;;;;;;;;;;;;;;;;;5071186;28;19990;-57
2023/02/13 17:04:40;;;;;;;;;;;;;;;;;;5082630;28;19913;-58
2023/02/13 17:07:06;;;;;;;;;;;;;;;;;;5089687;28;20269;-57
2023/02/13 17:09:32;;;;;;;;;;;;;;;;;;5095354;28;19915;-58
2023/02/13 17:11:58;;;;;;;;;;;;;;;;;;5095265;28;19912;-58
2023/02/13 17:14:24;;;;;;;;;;;;;;;;;;5095069;28;19916;-58
2023/02/13 17:16:49;;;;;;;;;;;;;;;;;;5095210;28;19915;-57
2023/02/13 17:19:15;;;;;;;;;;;;;;;;;;5093787;28;19908;-57